Time;durP1;ratioP1;P1;durP2;ratioP2;P2;SDS_P1;SDS_P2;PMS_P1;PMS_P2;Temp;Humidity;BMP_temperature;BMP_pressure;BME280_temperature;BME280_humidity;BME280_pressure;Samples;Min_cycle;Max_cycle;Signal;HPM_P1;HPM_P2
2021/07/09 00:02:07;;;;;;;8.95;6.03;;;;;;;18.93;81.16;101924.06;5061357;28;20282;-84
2021/07/09 00:07:46;;;;;;;11.75;6.68;;;;;;;18.88;81.82;101910.50;5072704;28;20028;-86
2021/07/09 00:10:41;;;;;;;10.65;6.97;;;;;;;18.77;82.53;101912.41;5069973;28;20027;-83
2021/07/09 00:13:28;;;;;;;;;;;;;;;;;;;;;
2021/07/09 00:15:54;;;;;;;12.63;5.95;;;;;;;18.83;82.50;101907.78;5057893;28;20044;-87
2021/07/09 00:21:57;;;;;;;10.18;6.50;;;;;;;18.80;82.82;101889.31;5031792;22;20072;-46
2021/07/09 00:24:23;;;;;;;9.43;6.28;;;;;;;18.75;83.09;101889.34;5030542;28;20039;-48
2021/07/09 00:26:48;;;;;;;11.88;6.55;;;;;;;18.75;82.74;101887.44;5037995;28;20425;-47
2021/07/09 00:29:14;;;;;;;10.02;6.20;;;;;;;18.73;83.17;101886.09;5033204;28;20405;-48
2021/07/09 00:31:39;;;;;;;11.40;7.30;;;;;;;18.56;84.57;101892.59;5031403;28;20013;-47
2021/07/09 00:34:06;;;;;;;12.93;7.32;;;;;;;18.61;84.26;101895.31;5049995;22;20021;-49
2021/07/09 00:36:33;;;;;;;8.60;6.88;;;;;;;18.54;84.95;101907.53;5089012;28;20035;-48
2021/07/09 00:39:00;;;;;;;12.70;7.28;;;;;;;18.59;84.51;101911.03;5090172;28;20051;-48
2021/07/09 00:41:26;;;;;;;8.70;6.63;;;;;;;18.63;84.37;101919.47;5092048;28;20028;-50
2021/07/09 00:43:52;;;;;;;8.95;6.60;;;;;;;18.68;84.00;101914.06;5094097;28;20034;-49
2021/07/09 00:46:29;;;;;;;8.68;6.20;;;;;;;18.64;84.42;101915.69;5087158;28;20059;-49
2021/07/09 00:48:54;;;;;;;12.32;7.07;;;;;;;18.71;83.58;101913.50;5085494;28;20020;-48
2021/07/09 00:51:20;;;;;;;8.65;6.55;;;;;;;18.57;84.60;101924.06;5083183;28;20039;-48
2021/07/09 00:53:45;;;;;;;9.23;6.22;;;;;;;18.62;84.24;101920.53;5086657;28;20223;-48
2021/07/09 00:56:11;;;;;;;8.57;5.88;;;;;;;18.70;83.87;101906.47;5083043;28;20032;-48
2021/07/09 00:58:36;;;;;;;12.05;6.40;;;;;;;18.73;83.82;101897.75;5085279;28;20024;-47
2021/07/09 01:01:02;;;;;;;8.68;6.05;;;;;;;18.74;83.70;101896.66;5082913;28;20035;-48
2021/07/09 01:03:27;;;;;;;7.07;6.22;;;;;;;18.73;83.74;101886.09;5084515;28;20543;-49
2021/07/09 01:05:53;;;;;;;8.63;6.22;;;;;;;18.76;83.54;101885.53;5082488;28;20039;-48
2021/07/09 01:08:18;;;;;;;7.85;6.38;;;;;;;18.72;83.77;101882.56;5082810;28;20027;-49
2021/07/09 01:10:46;;;;;;;10.52;6.68;;;;;;;18.69;84.02;101886.66;5081620;28;20028;-48
2021/07/09 01:13:12;;;;;;;9.13;6.70;;;;;;;18.66;84.57;101880.94;5079232;28;20078;-48
2021/07/09 01:15:37;;;;;;;8.73;6.43;;;;;;;18.65;84.50;101877.41;5078765;28;20025;-48
2021/07/09 01:18:04;;;;;;;10.65;6.55;;;;;;;18.67;84.43;101877.13;5082620;28;20054;-49
2021/07/09 01:20:30;;;;;;;10.15;6.55;;;;;;;18.61;84.85;101878.19;5083109;28;20066;-48
2021/07/09 01:22:58;;;;;;;8.70;5.55;;;;;;;18.62;84.46;101872.50;5077556;28;20016;-48
2021/07/09 01:25:26;;;;;;;8.38;7.00;;;;;;;18.64;84.93;101877.69;5076400;28;20118;-49
2021/07/09 01:28:06;;;;;;;10.00;6.57;;;;;;;18.58;84.98;101876.84;5080623;28;20032;-48
2021/07/09 01:30:33;;;;;;;8.70;6.05;;;;;;;18.62;84.83;101875.22;5083425;28;20041;-48
2021/07/09 01:32:59;;;;;;;9.23;6.97;;;;;;;18.62;85.01;101877.91;5079278;28;20435;-48
2021/07/09 01:35:27;;;;;;;9.80;7.05;;;;;;;18.63;85.08;101881.47;5078466;28;20028;-48
2021/07/09 01:37:54;;;;;;;8.35;6.53;;;;;;;18.62;85.10;101879.81;5087402;28;20049;-48
2021/07/09 01:40:19;;;;;;;10.18;7.55;;;;;;;18.63;85.06;101876.88;5077349;28;20588;-48
2021/07/09 01:42:44;;;;;;;9.65;6.85;;;;;;;18.64;84.98;101885.81;5077174;28;20082;-48
2021/07/09 01:45:10;;;;;;;8.98;6.95;;;;;;;18.62;85.35;101879.81;5079231;28;20337;-49
2021/07/09 01:47:35;;;;;;;10.18;6.75;;;;;;;18.65;84.97;101873.88;5079754;28;20025;-48
2021/07/09 01:50:03;;;;;;;9.43;7.00;;;;;;;18.66;85.09;101870.88;5079810;28;20412;-48
2021/07/09 01:52:29;;;;;;;11.52;7.10;;;;;;;18.65;85.17;101871.16;5082132;28;20031;-48
2021/07/09 01:54:56;;;;;;;9.68;7.15;;;;;;;18.67;85.04;101858.13;5082432;28;20040;-48
2021/07/09 01:57:22;;;;;;;10.27;7.05;;;;;;;18.66;85.23;101853.78;5082145;28;20034;-48
2021/07/09 01:59:48;;;;;;;13.93;7.53;;;;;;;18.64;85.58;101854.06;5078346;28;20366;-48
2021/07/09 02:02:14;;;;;;;10.40;7.85;;;;;;;18.61;85.79;101845.63;5081127;28;20119;-49
2021/07/09 02:04:48;;;;;;;8.98;6.75;;;;;;;18.63;85.68;101843.47;5076585;28;20119;-48
2021/07/09 02:07:14;;;;;;;9.50;7.43;;;;;;;18.64;85.74;101834.25;5086578;28;20043;-48
2021/07/09 02:09:42;;;;;;;9.45;7.38;;;;;;;18.63;85.88;101838.88;5080103;28;20032;-49
2021/07/09 02:12:08;;;;;;;10.68;7.93;;;;;;;18.62;86.07;101836.41;5082204;28;20027;-49
2021/07/09 02:14:33;;;;;;;9.73;7.15;;;;;;;18.58;86.50;101840.75;5084756;28;20027;-48
2021/07/09 02:16:59;;;;;;;7.95;7.00;;;;;;;18.60;86.24;101827.72;5086364;28;20527;-49
2021/07/09 02:19:25;;;;;;;9.05;6.68;;;;;;;18.57;86.45;101818.22;5081521;28;20035;-49
2021/07/09 02:21:53;;;;;;;10.68;9.02;;;;;;;18.57;86.68;101803.84;5079449;28;20025;-48
2021/07/09 02:24:19;;;;;;;11.52;8.38;;;;;;;18.59;86.41;101798.94;5084328;28;20539;-50
2021/07/09 02:26:44;;;;;;;11.77;7.85;;;;;;;18.57;86.49;101785.66;5085245;28;20032;-48
2021/07/09 02:29:09;;;;;;;14.35;8.15;;;;;;;18.58;86.70;101781.84;5081355;28;20243;-49
2021/07/09 02:31:35;;;;;;;10.25;8.38;;;;;;;18.59;86.60;101769.09;5084957;28;20028;-49
2021/07/09 02:34:00;;;;;;;15.73;9.45;;;;;;;18.54;87.04;101774.56;5079350;28;20462;-48
2021/07/09 02:36:26;;;;;;;9.02;7.32;;;;;;;18.56;86.99;101777.78;5082955;28;20477;-48
2021/07/09 02:38:52;;;;;;;11.82;8.13;;;;;;;18.56;87.00;101783.22;5084189;28;20480;-48
2021/07/09 02:41:18;;;;;;;12.25;8.90;;;;;;;18.51;87.70;101788.69;5080242;28;20032;-51
2021/07/09 02:43:44;;;;;;;8.65;7.35;;;;;;;18.54;87.18;101793.53;5083878;28;20047;-48
2021/07/09 02:46:10;;;;;;;14.10;8.93;;;;;;;18.54;87.10;101788.13;5081215;28;20028;-49
2021/07/09 02:48:35;;;;;;;10.23;7.97;;;;;;;18.51;87.39;101792.19;5087322;28;20031;-48
2021/07/09 02:51:01;;;;;;;11.38;7.45;;;;;;;18.57;87.22;101803.84;5083192;28;20552;-49
2021/07/09 02:53:26;;;;;;;12.95;8.07;;;;;;;18.51;87.72;101799.53;5082609;28;20020;-48
2021/07/09 02:55:52;;;;;;;13.85;8.73;;;;;;;18.49;87.85;101801.69;5083908;28;20445;-48
2021/07/09 02:58:17;;;;;;;12.32;7.95;;;;;;;18.54;87.41;101804.41;5083505;28;20595;-48
2021/07/09 03:00:43;;;;;;;11.75;8.82;;;;;;;18.52;87.66;101804.69;5079840;28;20055;-48
2021/07/09 03:03:09;;;;;;;11.82;8.45;;;;;;;18.57;87.25;101812.00;5083641;28;20498;-48
2021/07/09 03:05:35;;;;;;;8.85;7.85;;;;;;;18.62;87.15;101814.69;5080413;28;20066;-49
2021/07/09 03:08:00;;;;;;;7.82;6.95;;;;;;;18.62;86.89;101804.63;5079534;28;20052;-49
2021/07/09 03:10:25;;;;;;;14.25;8.35;;;;;;;18.65;86.85;101808.72;5082102;28;20028;-48
2021/07/09 03:12:51;;;;;;;10.43;7.47;;;;;;;18.68;86.49;101811.72;5082244;28;20066;-48
2021/07/09 03:15:16;;;;;;;9.07;7.95;;;;;;;18.70;86.57;101809.53;5087621;28;20047;-49
2021/07/09 03:17:42;;;;;;;11.63;7.93;;;;;;;18.69;86.59;101816.06;5085127;28;20049;-48
2021/07/09 03:20:10;;;;;;;13.85;9.10;;;;;;;18.71;86.73;101813.06;5083439;28;20309;-48
2021/07/09 03:22:37;;;;;;;10.63;8.95;;;;;;;18.68;86.63;101817.16;5085165;28;20055;-48
2021/07/09 03:25:08;;;;;;;17.05;9.13;;;;;;;18.57;87.41;101814.72;5082055;28;20028;-47
2021/07/09 03:27:34;;;;;;;13.90;8.57;;;;;;;18.57;87.25;101823.66;5085710;28;20020;-48
2021/07/09 03:30:00;;;;;;;16.75;9.18;;;;;;;18.62;86.88;101820.09;5081638;28;20024;-48
2021/07/09 03:32:26;;;;;;;14.45;9.00;;;;;;;18.59;87.09;101812.53;5079337;28;20031;-49
2021/07/09 03:34:51;;;;;;;16.83;9.55;;;;;;;18.61;86.60;101813.88;5078030;28;20111;-49
2021/07/09 03:37:16;;;;;;;11.05;9.20;;;;;;;18.61;86.71;101807.63;5080021;28;20500;-47
2021/07/09 03:39:42;;;;;;;18.63;9.68;;;;;;;18.62;86.73;101801.09;5081637;28;20024;-48
2021/07/09 03:42:08;;;;;;;16.42;10.15;;;;;;;18.64;86.48;101802.47;5078304;28;20028;-48
2021/07/09 03:44:34;;;;;;;13.73;9.73;;;;;;;18.65;86.37;101798.69;5081773;28;20062;-49
2021/07/09 03:46:59;;;;;;;16.85;9.70;;;;;;;18.66;86.36;101797.59;5080547;28;20035;-48
2021/07/09 03:49:25;;;;;;;15.00;9.10;;;;;;;18.67;86.20;101796.53;5083509;28;20495;-48
2021/07/09 03:51:50;;;;;;;15.50;10.18;;;;;;;18.67;86.32;101792.97;5080969;28;20051;-48
2021/07/09 03:54:16;;;;;;;12.20;8.80;;;;;;;18.61;86.87;101780.47;5085167;28;20068;-49
2021/07/09 03:56:41;;;;;;;12.82;9.95;;;;;;;18.62;86.89;101788.34;5076908;28;20564;-48
2021/07/09 03:59:07;;;;;;;14.68;9.38;;;;;;;18.68;86.45;101792.72;5085128;28;20012;-48
2021/07/09 04:01:32;;;;;;;12.57;8.95;;;;;;;18.69;86.55;101796.25;5081878;28;20161;-48
2021/07/09 04:03:57;;;;;;;14.07;10.18;;;;;;;18.71;86.38;101805.75;5082863;28;20493;-49
2021/07/09 04:06:24;;;;;;;11.48;8.70;;;;;;;18.70;86.68;101819.59;5084994;28;20027;-49
2021/07/09 04:08:49;;;;;;;12.50;9.77;;;;;;;18.67;86.94;101829.09;5081863;28;20055;-48
2021/07/09 04:11:14;;;;;;;13.65;8.15;;;;;;;18.74;86.32;101836.94;5078570;28;20224;-49
2021/07/09 04:13:40;;;;;;;15.05;9.55;;;;;;;18.81;85.98;101837.44;5079691;28;20028;-48
2021/07/09 04:16:05;;;;;;;14.70;9.18;;;;;;;18.82;86.06;101841.78;5084255;28;20636;-49
2021/07/09 04:18:31;;;;;;;13.88;9.82;;;;;;;18.83;85.96;101838.00;5085999;28;20392;-48
2021/07/09 04:20:57;;;;;;;14.23;9.75;;;;;;;18.79;86.17;101834.22;5084647;28;20032;-49
2021/07/09 04:23:23;;;;;;;15.52;9.15;;;;;;;18.86;85.63;101840.16;5078370;28;20440;-49
2021/07/09 04:25:48;;;;;;;14.10;9.38;;;;;;;18.86;85.68;101832.03;5081512;28;20035;-48
2021/07/09 04:28:15;;;;;;;15.40;10.25;;;;;;;18.87;85.81;101841.00;5084327;28;20056;-48
2021/07/09 04:30:40;;;;;;;12.10;9.15;;;;;;;18.87;85.58;101828.22;5086640;28;20081;-48
2021/07/09 04:33:05;;;;;;;14.45;9.57;;;;;;;18.83;85.89;101837.16;5086579;28;20028;-50
2021/07/09 04:35:31;;;;;;;14.20;9.30;;;;;;;18.82;85.81;101833.66;5078617;28;20019;-48
2021/07/09 04:37:56;;;;;;;13.80;9.05;;;;;;;18.84;85.75;101842.31;5084807;28;20114;-48
2021/07/09 04:40:22;;;;;;;15.77;9.85;;;;;;;18.85;85.85;101841.25;5087570;28;20546;-48
2021/07/09 04:42:47;;;;;;;16.50;10.63;;;;;;;18.82;85.78;101836.38;5082419;28;20466;-48
2021/07/09 04:45:14;;;;;;;15.30;10.45;;;;;;;18.81;86.00;101837.44;5085097;28;20502;-50
2021/07/09 04:47:39;;;;;;;13.40;10.15;;;;;;;18.83;85.91;101838.00;5083636;28;20671;-48
2021/07/09 04:50:05;;;;;;;17.08;10.68;;;;;;;18.75;86.52;101835.84;5084803;28;20020;-49
2021/07/09 04:52:31;;;;;;;15.27;10.20;;;;;;;18.79;86.16;101841.53;5082982;28;20016;-49
2021/07/09 04:54:56;;;;;;;16.70;10.25;;;;;;;18.73;86.71;101835.31;5085092;28;20016;-48
2021/07/09 04:57:22;;;;;;;18.02;11.00;;;;;;;18.78;86.59;101838.00;5085049;28;20526;-49
2021/07/09 04:59:47;;;;;;;19.15;10.75;;;;;;;18.74;86.63;101833.41;5081991;28;20436;-48
2021/07/09 05:02:13;;;;;;;17.92;10.65;;;;;;;18.75;86.51;101830.44;5085248;28;20091;-49
2021/07/09 05:04:38;;;;;;;17.35;10.10;;;;;;;18.78;86.40;101829.88;5082981;28;20040;-48
2021/07/09 05:07:04;;;;;;;17.30;10.32;;;;;;;18.76;86.70;101826.63;5085137;28;20055;-49
2021/07/09 05:09:29;;;;;;;16.80;10.48;;;;;;;18.84;86.23;101825.22;5082741;28;20028;-48
2021/07/09 05:11:55;;;;;;;15.23;11.27;;;;;;;18.82;86.37;101825.50;5083542;28;20381;-48
2021/07/09 05:14:21;;;;;;;17.90;10.15;;;;;;;18.79;86.48;101814.38;5083431;28;20039;-48
2021/07/09 05:16:47;;;;;;;15.10;10.93;;;;;;;18.71;87.05;101822.03;5084647;28;20046;-48
2021/07/09 05:19:12;;;;;;;15.93;11.18;;;;;;;18.80;86.33;101822.25;5080491;28;20028;-49
2021/07/09 05:21:38;;;;;;;18.85;10.52;;;;;;;18.80;86.69;101818.72;5080249;28;20020;-48
2021/07/09 05:24:06;;;;;;;16.45;11.23;;;;;;;18.74;87.38;101812.50;5084819;28;20024;-48
2021/07/09 05:26:33;;;;;;;16.02;11.38;;;;;;;18.82;87.07;101808.41;5086567;28;20434;-48
2021/07/09 05:28:58;;;;;;;14.32;10.85;;;;;;;18.90;86.75;101805.94;5081200;28;20462;-48
2021/07/09 05:31:24;;;;;;;18.23;10.95;;;;;;;18.93;86.48;101801.84;5080149;28;20035;-48
2021/07/09 05:33:49;;;;;;;15.05;9.85;;;;;;;18.99;86.16;101787.97;5081396;28;20052;-48
2021/07/09 05:36:15;;;;;;;14.20;9.98;;;;;;;19.01;85.94;101788.47;5085449;28;20024;-48
2021/07/09 05:38:40;;;;;;;16.73;10.65;;;;;;;19.07;85.69;101786.56;5079877;28;20020;-48
2021/07/09 05:41:06;;;;;;;13.90;9.68;;;;;;;19.08;85.69;101773.81;5085502;28;20043;-48
2021/07/09 05:43:32;;;;;;;13.40;9.77;;;;;;;19.10;85.98;101774.34;5084170;28;20020;-49
2021/07/09 05:45:57;;;;;;;13.50;9.70;;;;;;;19.15;85.60;101771.59;5084745;28;20409;-48
2021/07/09 05:48:23;;;;;;;14.27;8.95;;;;;;;19.16;85.72;101774.00;5083956;28;20102;-48
2021/07/09 05:50:48;;;;;;;12.40;8.90;;;;;;;19.18;85.60;101768.31;5085983;28;20020;-49
2021/07/09 05:53:14;;;;;;;11.02;8.70;;;;;;;19.23;85.36;101771.00;5084109;28;20342;-48
2021/07/09 05:55:39;;;;;;;14.85;9.73;;;;;;;19.18;85.58;101765.59;5088880;28;20034;-49
2021/07/09 05:58:05;;;;;;;13.68;9.93;;;;;;;19.21;85.35;101756.88;5087552;28;20540;-49
2021/07/09 06:00:30;;;;;;;15.55;9.75;;;;;;;19.12;86.19;101764.00;5088085;28;20229;-48
2021/07/09 06:02:56;;;;;;;12.23;9.00;;;;;;;19.17;85.81;101755.81;5088275;28;20036;-48
2021/07/09 06:05:21;;;;;;;10.80;8.45;;;;;;;19.19;85.81;101754.44;5088294;28;20024;-48
2021/07/09 06:07:47;;;;;;;15.48;8.75;;;;;;;19.25;85.38;101744.38;5086973;28;20032;-49
2021/07/09 06:10:12;;;;;;;14.73;8.80;;;;;;;19.25;85.46;101741.66;5087323;28;20028;-49
2021/07/09 06:12:38;;;;;;;14.35;8.52;;;;;;;19.26;85.51;101727.78;5088825;28;20020;-49
2021/07/09 06:15:06;;;;;;;11.00;8.38;;;;;;;19.26;85.63;101722.34;5093941;28;20118;-48
2021/07/09 06:17:31;;;;;;;14.15;9.35;;;;;;;19.34;85.10;101712.75;5083407;28;20036;-48
2021/07/09 06:19:57;;;;;;;13.98;8.77;;;;;;;19.31;85.16;101697.03;5084560;28;20020;-48
2021/07/09 06:22:22;;;;;;;11.45;9.60;;;;;;;19.32;85.13;101687.78;5088572;28;20035;-48
2021/07/09 06:24:48;;;;;;;12.65;9.55;;;;;;;19.33;85.08;101686.69;5082614;28;20028;-48
2021/07/09 06:27:13;;;;;;;17.80;9.77;;;;;;;19.35;85.01;101687.22;5087093;28;20504;-48
2021/07/09 06:29:38;;;;;;;11.30;9.20;;;;;;;19.35;85.19;101687.22;5086486;28;20206;-48
2021/07/09 06:32:04;;;;;;;13.23;9.85;;;;;;;19.40;84.95;101667.38;5086323;28;20035;-48
2021/07/09 06:34:31;;;;;;;13.82;10.40;;;;;;;19.41;84.99;101658.91;5084387;28;20031;-48
2021/07/09 06:36:57;;;;;;;11.75;9.07;;;;;;;19.47;84.61;101663.22;5084379;28;20437;-47
2021/07/09 06:39:23;;;;;;;15.13;9.88;;;;;;;19.45;84.86;101659.97;5084027;28;20024;-48
2021/07/09 06:41:48;;;;;;;14.45;10.23;;;;;;;19.46;84.83;101653.44;5082538;28;20554;-48
2021/07/09 06:44:14;;;;;;;12.32;9.40;;;;;;;19.47;84.85;101646.91;5083785;28;20664;-48
2021/07/09 06:46:39;;;;;;;10.48;8.65;;;;;;;19.51;84.55;101638.97;5083311;28;20027;-48
2021/07/09 06:49:05;;;;;;;13.00;8.80;;;;;;;19.48;84.69;101637.66;5083198;28;20042;-48
2021/07/09 06:51:30;;;;;;;14.40;9.18;;;;;;;19.48;85.06;101632.22;5082596;28;20047;-49
2021/07/09 06:53:56;;;;;;;10.82;8.77;;;;;;;19.57;84.98;101627.00;5087584;28;20032;-48
2021/07/09 06:56:21;;;;;;;12.18;8.45;;;;;;;19.76;83.98;101625.19;5083502;28;20449;-49
2021/07/09 06:58:46;;;;;;;10.32;8.45;;;;;;;19.82;83.90;101634.88;5088725;28;20028;-49
2021/07/09 07:01:12;;;;;;;10.75;7.63;;;;;;;19.83;83.65;101652.03;5083026;28;20206;-48
2021/07/09 07:03:37;;;;;;;8.93;8.00;;;;;;;19.87;83.44;101672.91;5089938;28;20032;-48
2021/07/09 07:06:03;;;;;;;13.70;8.48;;;;;;;19.82;83.67;101672.16;5084258;28;20027;-48
2021/07/09 07:08:28;;;;;;;10.98;8.18;;;;;;;19.78;84.33;101671.94;5090573;28;20016;-48
2021/07/09 07:10:55;;;;;;;12.77;7.70;;;;;;;19.81;84.08;101668.63;5090132;28;20024;-48
2021/07/09 07:13:22;;;;;;;12.27;8.40;;;;;;;19.85;83.96;101679.72;5082502;28;20016;-48
2021/07/09 07:15:48;;;;;;;11.73;8.48;;;;;;;19.77;84.26;101691.25;5085012;28;20020;-48
2021/07/09 07:18:14;;;;;;;9.00;8.10;;;;;;;19.79;84.23;101692.56;5085719;28;20032;-48
2021/07/09 07:20:42;;;;;;;11.55;7.20;;;;;;;19.73;84.50;101687.47;5084973;28;20032;-49
2021/07/09 07:23:15;;;;;;;12.77;8.13;;;;;;;19.76;84.16;101674.13;5081876;28;20375;-48
2021/07/09 07:25:41;;;;;;;7.53;6.82;;;;;;;19.77;83.93;101672.22;5085448;28;20449;-51
2021/07/09 07:28:08;;;;;;;11.23;7.30;;;;;;;19.74;84.00;101679.00;5077589;28;20024;-48
2021/07/09 07:30:35;;;;;;;11.52;8.43;;;;;;;19.71;84.20;101678.78;5076764;28;20032;-49
2021/07/09 07:33:01;;;;;;;10.20;8.48;;;;;;;19.66;84.58;101670.69;5077919;28;20598;-51
2021/07/09 07:35:28;;;;;;;12.23;7.93;;;;;;;19.68;84.21;101663.84;5084891;28;20115;-49
2021/07/09 07:37:53;;;;;;;8.73;6.82;;;;;;;19.72;83.93;101669.53;5080232;28;20062;-48
2021/07/09 07:40:19;;;;;;;8.20;7.20;;;;;;;19.64;84.41;101662.81;5078051;28;20127;-51
2021/07/09 07:42:45;;;;;;;9.20;7.30;;;;;;;19.74;83.90;101667.31;5080574;28;20024;-49
2021/07/09 07:45:11;;;;;;;8.55;7.50;;;;;;;19.72;84.11;101669.53;5084167;28;20590;-49
2021/07/09 07:47:38;;;;;;;9.40;7.78;;;;;;;19.76;83.82;101667.88;5082987;28;20342;-49
2021/07/09 07:50:04;;;;;;;13.13;8.15;;;;;;;19.77;83.79;101683.09;5082491;28;20016;-49
2021/07/09 07:52:30;;;;;;;10.43;7.20;;;;;;;19.72;84.12;101674.97;5086298;28;20024;-48
2021/07/09 07:54:55;;;;;;;9.65;6.75;;;;;;;19.70;84.06;101669.81;5084326;28;20031;-49
2021/07/09 07:57:21;;;;;;;9.52;7.30;;;;;;;19.74;83.94;101684.44;5080277;28;20016;-48
2021/07/09 07:59:46;;;;;;;12.00;7.93;;;;;;;19.73;84.13;101679.31;5086349;28;20386;-49
2021/07/09 08:02:12;;;;;;;9.48;8.30;;;;;;;19.77;83.97;101680.38;5085204;28;20135;-50
2021/07/09 08:04:38;;;;;;;8.32;7.35;;;;;;;19.82;83.97;101669.44;5084268;28;20024;-49
2021/07/09 08:07:03;;;;;;;11.63;8.15;;;;;;;19.88;83.79;101657.41;5081551;28;20028;-49
2021/07/09 08:09:29;;;;;;;9.77;8.18;;;;;;;19.95;83.77;101651.63;5081513;28;20473;-49
2021/07/09 08:11:56;;;;;;;9.80;8.15;;;;;;;20.03;83.48;101649.06;5084717;28;20024;-48
2021/07/09 08:14:21;;;;;;;9.43;8.23;;;;;;;20.09;83.20;101642.47;5084378;28;20028;-50
2021/07/09 08:16:53;;;;;;;13.05;8.75;;;;;;;20.16;82.80;101637.50;5083446;28;20088;-48
2021/07/09 08:19:19;;;;;;;8.73;7.53;;;;;;;20.25;82.54;101634.13;5085661;28;20020;-49
2021/07/09 08:21:46;;;;;;;13.77;7.95;;;;;;;20.31;82.26;101633.78;5082749;28;20154;-49
2021/07/09 08:24:16;;;;;;;9.45;6.82;;;;;;;20.38;81.77;101628.78;5082087;28;21591;-49
2021/07/09 08:26:42;;;;;;;8.90;6.85;;;;;;;20.43;81.61;101627.94;5081143;28;20024;-51
2021/07/09 08:29:08;;;;;;;12.90;6.50;;;;;;;20.52;81.21;101624.28;5082651;28;20026;-48
2021/07/09 08:31:34;;;;;;;10.10;6.85;;;;;;;20.56;81.32;101624.47;5080221;28;20146;-49
2021/07/09 08:33:59;;;;;;;10.38;7.38;;;;;;;20.64;81.07;101637.44;5077964;28;20324;-49
2021/07/09 08:36:25;;;;;;;10.77;7.03;;;;;;;20.69;80.51;101631.94;5079236;28;20047;-51
2021/07/09 08:38:51;;;;;;;9.60;6.93;;;;;;;20.72;80.64;101636.78;5079968;28;20031;-49
2021/07/09 08:41:17;;;;;;;12.55;7.03;;;;;;;20.78;80.36;101648.41;5084317;28;20398;-49
2021/07/09 08:43:43;;;;;;;10.93;8.07;;;;;;;20.85;80.32;101648.84;5086236;28;20470;-49
2021/07/09 08:46:08;;;;;;;10.73;8.18;;;;;;;20.87;80.41;101652.09;5081949;28;20073;-48
2021/07/09 08:48:36;;;;;;;13.02;8.02;;;;;;;20.90;80.40;101656.13;5083354;28;20043;-49
2021/07/09 08:51:01;;;;;;;9.77;8.05;;;;;;;20.92;80.11;101654.72;5085034;28;20532;-48
2021/07/09 08:53:27;;;;;;;12.80;8.63;;;;;;;20.97;79.81;101657.38;5083427;28;20070;-48
2021/07/09 08:55:53;;;;;;;15.52;9.07;;;;;;;20.99;80.04;101643.44;5085276;28;20382;-49
2021/07/09 08:58:18;;;;;;;16.48;9.75;;;;;;;21.07;80.08;101642.78;5085297;28;20027;-49
2021/07/09 09:00:45;;;;;;;10.98;8.35;;;;;;;21.14;79.76;101637.75;5085991;28;20603;-49
2021/07/09 09:03:31;;;;;;;12.35;9.02;;;;;;;21.31;79.63;101629.06;5081826;28;20039;-49
2021/07/09 09:06:01;;;;;;;11.30;8.93;;;;;;;21.50;78.61;101631.75;5086183;28;20063;-49
2021/07/09 09:08:28;;;;;;;13.23;9.07;;;;;;;21.54;78.27;101636.28;5076654;28;20024;-49
2021/07/09 09:10:58;;;;;;;15.07;9.65;;;;;;;21.49;78.44;101632.84;5077705;28;20063;-51
2021/07/09 09:13:26;;;;;;;12.85;8.57;;;;;;;21.38;78.55;101633.03;5080003;28;20054;-52
2021/07/09 09:16:15;;;;;;;11.88;8.55;;;;;;;21.37;78.60;101628.69;5076671;28;20024;-49
2021/07/09 09:18:43;;;;;;;10.52;8.02;;;;;;;21.32;79.11;101631.50;5092724;28;20113;-50
2021/07/09 09:21:13;;;;;;;14.88;9.02;;;;;;;21.37;79.06;101645.06;5078747;28;20032;-49
2021/07/09 09:23:56;;;;;;;11.07;8.20;;;;;;;21.39;79.05;101648.28;5085833;28;20024;-49
2021/07/09 09:26:40;;;;;;;13.90;8.43;;;;;;;21.19;79.77;101637.69;5082668;28;20356;-50
2021/07/09 09:29:10;;;;;;;14.80;8.80;;;;;;;21.37;79.13;101634.16;5078341;28;20502;-49
2021/07/09 09:31:37;;;;;;;12.27;8.38;;;;;;;21.36;79.04;101632.53;5078770;28;20035;-50
2021/07/09 09:34:04;;;;;;;12.00;8.73;;;;;;;21.36;78.96;101635.25;5077505;28;20104;-49
2021/07/09 09:36:31;;;;;;;13.10;8.55;;;;;;;21.09;80.42;101635.94;5078714;28;20036;-50
2021/07/09 09:38:59;;;;;;;10.95;7.97;;;;;;;21.20;79.92;101627.63;5081572;28;20024;-49
2021/07/09 09:41:25;;;;;;;9.63;7.38;;;;;;;21.29;79.66;101637.56;5080851;28;20035;-49
2021/07/09 09:43:51;;;;;;;9.65;7.82;;;;;;;21.42;78.94;101625.88;5081470;28;20036;-49
2021/07/09 09:46:27;;;;;;;10.27;8.18;;;;;;;21.14;80.26;101635.03;5085274;28;20401;-48
2021/07/09 09:48:53;;;;;;;13.38;7.95;;;;;;;21.12;80.39;101631.81;5081396;28;20035;-49
2021/07/09 09:51:37;;;;;;;12.23;8.65;;;;;;;20.92;81.79;101627.50;5085625;28;20370;-50
2021/07/09 09:54:04;;;;;;;9.93;7.85;;;;;;;21.12;80.87;101623.63;5085803;28;20020;-48
2021/07/09 09:56:38;;;;;;;11.88;8.15;;;;;;;21.25;80.14;101625.63;5078959;28;20028;-49
2021/07/09 09:59:22;;;;;;;9.13;7.45;;;;;;;21.30;80.14;101622.81;5082588;28;20024;-49
2021/07/09 10:01:50;;;;;;;11.55;7.53;;;;;;;21.33;80.21;101624.94;5084726;28;20036;-49
2021/07/09 10:04:15;;;;;;;11.93;7.65;;;;;;;21.36;80.19;101623.53;5081203;28;20082;-50
2021/07/09 10:06:44;;;;;;;9.52;7.53;;;;;;;21.57;78.95;101627.53;5080583;28;20454;-49
2021/07/09 10:09:10;;;;;;;12.18;7.95;;;;;;;21.53;79.06;101628.41;5080638;28;20047;-49
2021/07/09 10:11:37;;;;;;;9.27;8.05;;;;;;;21.80;78.17;101617.53;5081627;28;20032;-49
2021/07/09 10:14:03;;;;;;;13.38;8.13;;;;;;;21.96;77.91;101616.13;5081884;28;20749;-50
2021/07/09 10:16:30;;;;;;;9.13;6.47;;;;;;;22.14;77.14;101613.63;5082168;28;20036;-49
2021/07/09 10:18:57;;;;;;;10.15;6.68;;;;;;;22.20;76.82;101602.28;5084557;28;20378;-49
2021/07/09 10:21:22;;;;;;;8.68;6.90;;;;;;;22.23;76.40;101607.13;5080996;28;20028;-50
2021/07/09 10:23:48;;;;;;;8.77;6.35;;;;;;;22.42;75.52;101604.25;5081470;28;20036;-49
2021/07/09 10:26:18;;;;;;;8.45;6.45;;;;;;;22.27;75.09;101601.91;5084664;28;20031;-49
2021/07/09 10:29:23;;;;;;;9.68;8.23;;;;;;;22.16;76.68;101611.41;5085864;28;20070;-49
2021/07/09 10:31:51;;;;;;;11.57;7.57;;;;;;;22.37;75.75;101606.31;5083092;28;20036;-49
2021/07/09 10:34:49;;;;;;;8.38;7.18;;;;;;;22.47;75.95;101601.44;5089737;28;20431;-49
2021/07/09 10:37:23;;;;;;;12.35;6.63;;;;;;;22.51;75.41;101601.63;5081812;28;20028;-49
2021/07/09 10:40:15;;;;;;;7.07;6.38;;;;;;;22.73;75.38;101598.13;5082129;28;20176;-49
2021/07/09 10:42:42;;;;;;;8.73;5.97;;;;;;;23.02;74.05;101601.28;5087334;28;20162;-50
2021/07/09 10:45:15;;;;;;;7.90;7.10;;;;;;;23.08;73.76;101604.69;5086830;28;20030;-49
2021/07/09 10:47:46;;;;;;;8.18;6.70;;;;;;;22.87;73.84;101599.72;5086749;28;20466;-49
2021/07/09 10:50:18;;;;;;;7.65;6.85;;;;;;;22.88;74.20;101600.53;5082797;28;20086;-49
2021/07/09 10:52:48;;;;;;;9.90;7.65;;;;;;;22.93;73.79;101603.13;5089752;28;20017;-50
2021/07/09 10:55:28;;;;;;;9.98;8.02;;;;;;;22.70;74.39;101606.94;5078703;28;20031;-50
2021/07/09 10:58:06;;;;;;;10.77;7.65;;;;;;;22.59;74.71;101615.34;5082671;28;20485;-49
2021/07/09 11:00:53;;;;;;;9.38;8.27;;;;;;;22.66;74.50;101609.47;5082331;28;20036;-49
2021/07/09 11:03:29;;;;;;;10.38;8.27;;;;;;;22.61;75.04;101612.31;5087356;28;20023;-49
2021/07/09 11:06:03;;;;;;;8.13;7.38;;;;;;;22.48;75.58;101613.19;5081508;28;20570;-49
2021/07/09 11:08:32;;;;;;;;;;;;;;;22.28;75.75;101603.50;5085304;28;20032;-49
2021/07/09 11:11:16;;;;;;;10.60;7.93;;;;;;;22.65;75.81;101612.53;5078397;28;19920;-50
2021/07/09 11:13:42;;;;;;;9.68;8.10;;;;;;;23.00;74.30;101608.97;5083700;28;20487;-49
2021/07/09 11:16:27;;;;;;;9.60;6.65;;;;;;;23.21;73.41;101610.06;5080243;28;20027;-50
2021/07/09 11:19:05;;;;;;;7.53;6.82;;;;;;;23.64;73.74;101600.50;5086375;28;20016;-49
2021/07/09 11:21:30;;;;;;;7.10;6.13;;;;;;;24.15;71.10;101596.31;5086421;28;20698;-50
2021/07/09 11:24:17;;;;;;;6.88;5.32;;;;;;;24.38;70.95;101595.91;5080220;28;20450;-49
2021/07/09 11:26:52;;;;;;;7.75;5.35;;;;;;;24.69;68.35;101592.22;5080965;28;20437;-50
2021/07/09 11:29:38;;;;;;;5.53;4.95;;;;;;;24.25;67.67;101602.31;5084650;28;20393;-50